Time;durP1;ratioP1;P1;durP2;ratioP2;P2;SDS_P1;SDS_P2;PMS_P1;PMS_P2;Temp;Humidity;BMP_temperature;BMP_pressure;BME280_temperature;BME280_humidity;BME280_pressure;Samples;Min_cycle;Max_cycle;Signal;HPM_P1;HPM_P2
2022/05/16 00:00:57;;;;;;;1.97;1.87;;;21.00;58.10;;;;;;5097242;28;20906;-68
2022/05/16 00:03:24;;;;;;;1.90;1.80;;;21.00;58.10;;;;;;5097133;28;20505;-68
2022/05/16 00:05:50;;;;;;;1.60;1.50;;;21.00;58.10;;;;;;5097084;28;20428;-69
2022/05/16 00:08:16;;;;;;;1.80;1.70;;;21.00;58.20;;;;;;5097122;28;20447;-69
2022/05/16 00:10:42;;;;;;;1.73;1.63;;;21.00;58.10;;;;;;5096035;28;20451;-69
2022/05/16 00:13:08;;;;;;;1.97;1.87;;;21.00;58.00;;;;;;5093339;28;20283;-69
2022/05/16 00:15:34;;;;;;;2.13;2.00;;;21.00;58.10;;;;;;5089126;28;20514;-69
2022/05/16 00:18:00;;;;;;;1.87;1.77;;;21.00;58.00;;;;;;5079677;28;20598;-69
2022/05/16 00:20:26;;;;;;;2.07;1.97;;;21.00;58.00;;;;;;5096810;28;20761;-69
2022/05/16 00:22:52;;;;;;;1.60;1.50;;;21.00;58.00;;;;;;5096806;28;20412;-69
2022/05/16 00:25:19;;;;;;;1.93;1.83;;;21.00;58.00;;;;;;5096752;28;20474;-69
2022/05/16 00:27:45;;;;;;;1.77;1.67;;;21.00;58.00;;;;;;5096547;28;20967;-68
2022/05/16 00:30:14;;;;;;;2.40;1.83;;;21.00;58.00;;;;;;5096628;28;20413;-69
2022/05/16 00:32:41;;;;;;;1.33;1.33;;;21.00;57.90;;;;;;5095556;28;20452;-69
2022/05/16 00:35:08;;;;;;;1.87;1.77;;;21.00;57.90;;;;;;5096600;28;20737;-68
2022/05/16 00:37:34;;;;;;;2.10;2.00;;;21.00;58.00;;;;;;5096302;28;20958;-69
2022/05/16 00:40:00;;;;;;;2.07;1.97;;;21.00;57.80;;;;;;5096712;28;20416;-69
2022/05/16 00:42:25;;;;;;;1.57;1.40;;;21.00;58.00;;;;;;5096694;28;20190;-68
2022/05/16 00:44:51;;;;;;;1.70;1.60;;;21.00;57.90;;;;;;5096376;28;20211;-69
2022/05/16 00:47:17;;;;;;;1.70;1.60;;;21.00;57.90;;;;;;5096091;28;20225;-69
2022/05/16 00:49:46;;;;;;;1.70;1.60;;;21.00;57.90;;;;;;5096295;28;20171;-69
2022/05/16 00:52:23;;;;;;;1.70;1.60;;;21.00;57.90;;;;;;5095173;28;20655;-69
2022/05/16 00:54:57;;;;;;;1.83;1.73;;;21.00;57.90;;;;;;5096277;28;20396;-69
2022/05/16 00:57:32;;;;;;;1.57;1.47;;;21.00;57.80;;;;;;5095113;28;21137;-69
2022/05/16 01:00:13;;;;;;;1.80;1.70;;;21.00;57.90;;;;;;5096160;28;20739;-68
2022/05/16 01:05:27;;;;;;;1.60;1.50;;;21.00;57.90;;;;;;5095917;28;20411;-68
2022/05/16 01:08:06;;;;;;;2.47;2.10;;;21.00;57.80;;;;;;5095829;28;20881;-67
2022/05/16 01:10:33;;;;;;;2.17;1.83;;;21.00;57.90;;;;;;5096167;28;20800;-68
2022/05/16 01:12:58;;;;;;;1.73;1.63;;;21.00;57.90;;;;;;5094745;28;20460;-67
2022/05/16 01:15:28;;;;;;;2.30;2.10;;;21.00;57.80;;;;;;5095691;28;20872;-67
2022/05/16 01:17:54;;;;;;;2.10;2.00;;;21.00;57.80;;;;;;5095705;28;20173;-68
2022/05/16 01:20:20;;;;;;;1.70;1.60;;;21.00;57.80;;;;;;5095662;28;20818;-68
2022/05/16 01:22:49;;;;;;;2.03;1.90;;;21.00;57.90;;;;;;5094670;28;20495;-68
2022/05/16 01:25:29;;;;;;;1.70;1.60;;;21.00;57.80;;;;;;5094558;28;20604;-68
2022/05/16 01:28:04;;;;;;;2.40;1.60;;;21.00;57.80;;;;;;5095576;28;20484;-68
2022/05/16 01:30:46;;;;;;;1.97;1.87;;;21.00;57.80;;;;;;5094489;28;20423;-68
2022/05/16 01:33:20;;;;;;;1.60;1.50;;;21.00;57.80;;;;;;5094432;28;20460;-67
2022/05/16 01:35:46;;;;;;;1.93;1.60;;;21.00;57.90;;;;;;5095331;28;20416;-67
2022/05/16 01:38:21;;;;;;;1.80;1.70;;;21.00;57.80;;;;;;5095288;28;20420;-69
2022/05/16 01:40:54;;;;;;;1.50;1.40;;;21.00;57.80;;;;;;5095352;28;20383;-68
2022/05/16 01:43:23;;;;;;;2.03;1.83;;;21.00;57.80;;;;;;5095211;28;20866;-67
2022/05/16 01:45:49;;;;;;;1.77;1.67;;;21.00;58.00;;;;;;5095090;28;20450;-68
2022/05/16 01:48:17;;;;;;;1.60;1.50;;;21.00;57.80;;;;;;5095010;28;20459;-68
2022/05/16 01:50:44;;;;;;;2.13;2.00;;;21.00;58.00;;;;;;5095112;28;20435;-69
2022/05/16 01:53:10;;;;;;;1.90;1.80;;;21.00;57.90;;;;;;5094971;28;20500;-70
2022/05/16 01:55:36;;;;;;;2.00;1.90;;;21.00;57.80;;;;;;5094949;28;20870;-68
2022/05/16 01:58:03;;;;;;;2.07;1.97;;;21.00;57.90;;;;;;5095006;28;20415;-68
2022/05/16 02:00:30;;;;;;;1.63;1.53;;;21.00;57.90;;;;;;5094918;28;20177;-68
2022/05/16 02:02:56;;;;;;;1.97;1.87;;;20.90;58.00;;;;;;5094927;28;20404;-67
2022/05/16 02:05:23;;;;;;;2.10;1.83;;;20.90;58.20;;;;;;5094750;28;20421;-69
2022/05/16 02:07:50;;;;;;;2.23;2.03;;;20.90;57.90;;;;;;5093849;28;20608;-67
2022/05/16 02:10:17;;;;;;;1.80;1.70;;;20.90;57.90;;;;;;5094771;28;20415;-67
2022/05/16 02:12:44;;;;;;;1.83;1.73;;;20.90;57.70;;;;;;5094338;28;20463;-67
2022/05/16 02:15:13;;;;;;;2.40;2.30;;;20.90;57.70;;;;;;5094709;28;20396;-68
2022/05/16 02:17:39;;;;;;;1.80;1.70;;;20.90;58.00;;;;;;5094564;28;20412;-69
2022/05/16 02:20:05;;;;;;;1.70;1.60;;;20.90;57.70;;;;;;5094617;28;20878;-69
2022/05/16 02:25:16;;;;;;;2.10;1.90;;;20.90;57.70;;;;;;5094868;28;20391;-67
2022/05/16 02:27:43;;;;;;;2.20;2.00;;;20.90;57.70;;;;;;5094414;28;20511;-69
2022/05/16 02:30:10;;;;;;;2.03;1.93;;;20.90;57.50;;;;;;5094494;28;20223;-68
2022/05/16 02:32:36;;;;;;;2.33;2.13;;;20.90;57.70;;;;;;5093406;28;20539;-69
2022/05/16 02:35:02;;;;;;;2.43;2.33;;;20.90;57.70;;;;;;5094446;28;20502;-67
2022/05/16 02:37:28;;;;;;;2.20;1.73;;;21.00;57.60;;;;;;5094338;28;20189;-68
2022/05/16 02:39:54;;;;;;;3.33;2.20;;;20.90;57.70;;;;;;5094665;28;20396;-68
2022/05/16 02:42:19;;;;;;;2.67;2.27;;;20.90;57.70;;;;;;5094385;28;20588;-68
2022/05/16 02:44:45;;;;;;;1.53;1.43;;;21.00;57.50;;;;;;5094558;28;20210;-67
2022/05/16 02:47:13;;;;;;;1.80;1.70;;;21.00;57.50;;;;;;5093166;28;20718;-67
2022/05/16 02:49:39;;;;;;;2.20;2.00;;;21.00;57.60;;;;;;5094313;28;20210;-68
2022/05/16 02:52:05;;;;;;;1.97;1.87;;;21.00;57.70;;;;;;5094209;28;20476;-67
2022/05/16 02:54:31;;;;;;;1.90;1.80;;;21.00;57.70;;;;;;5093194;28;20197;-68
2022/05/16 02:56:58;;;;;;;2.00;1.90;;;21.00;57.80;;;;;;5094209;28;20198;-67
2022/05/16 02:59:26;;;;;;;2.20;2.00;;;21.00;57.90;;;;;;5094472;28;20420;-68
2022/05/16 03:01:52;;;;;;;2.00;1.90;;;21.00;57.70;;;;;;5093205;28;20412;-68
2022/05/16 03:04:17;;;;;;;1.80;1.70;;;21.00;57.70;;;;;;5094411;28;20450;-68
2022/05/16 03:06:43;;;;;;;1.90;1.80;;;21.00;57.90;;;;;;5094051;28;20689;-68
2022/05/16 03:09:09;;;;;;;1.83;1.73;;;21.00;58.00;;;;;;5094389;28;20170;-70
2022/05/16 03:11:35;;;;;;;1.90;1.80;;;21.00;58.00;;;;;;5093969;28;20178;-69
2022/05/16 03:14:00;;;;;;;1.70;1.60;;;21.00;58.10;;;;;;5094127;28;20504;-69
2022/05/16 03:16:26;;;;;;;1.80;1.70;;;21.00;58.20;;;;;;5094027;28;20281;-68
2022/05/16 03:18:52;;;;;;;1.50;1.40;;;21.00;58.10;;;;;;5080984;28;20182;-67
2022/05/16 03:21:19;;;;;;;1.80;1.70;;;21.00;58.10;;;;;;5079198;28;20181;-67
2022/05/16 03:23:45;;;;;;;1.70;1.60;;;21.00;58.20;;;;;;5094021;28;20397;-69
2022/05/16 03:26:11;;;;;;;1.90;1.80;;;21.00;58.00;;;;;;5078204;28;20433;-69
2022/05/16 03:28:36;;;;;;;2.00;1.90;;;21.00;58.10;;;;;;5091311;28;20182;-69
2022/05/16 03:31:02;;;;;;;1.63;1.53;;;21.00;58.10;;;;;;5097830;28;20193;-67
2022/05/16 03:33:28;;;;;;;1.87;1.77;;;21.00;58.10;;;;;;5097664;28;20259;-67
2022/05/16 03:35:56;;;;;;;1.87;1.77;;;21.00;58.20;;;;;;5097602;28;20432;-68
2022/05/16 03:41:14;;;;;;;1.80;1.70;;;21.00;58.00;;;;;;5097655;28;20419;-67
2022/05/16 03:43:41;;;;;;;1.70;1.60;;;21.00;57.90;;;;;;5097579;28;20435;-67
2022/05/16 03:46:08;;;;;;;2.20;2.07;;;21.00;57.90;;;;;;5097489;28;20209;-67
2022/05/16 03:48:34;;;;;;;2.20;2.10;;;21.00;57.90;;;;;;5097340;28;20471;-68
2022/05/16 03:51:02;;;;;;;2.40;2.20;;;21.00;57.90;;;;;;5097465;28;20400;-68
2022/05/16 03:53:27;;;;;;;2.10;2.00;;;21.00;57.90;;;;;;5097282;28;20458;-68
2022/05/16 03:55:53;;;;;;;1.87;1.77;;;21.00;57.90;;;;;;5097219;28;20744;-67
2022/05/16 03:58:19;;;;;;;2.00;1.90;;;21.00;57.90;;;;;;5097266;28;20226;-67
2022/05/16 04:00:45;;;;;;;2.43;2.27;;;21.00;58.00;;;;;;5097553;28;20166;-68
2022/05/16 04:03:11;;;;;;;2.10;2.00;;;21.00;57.90;;;;;;5097236;28;20202;-69
2022/05/16 04:05:37;;;;;;;1.90;1.80;;;21.00;57.90;;;;;;5097088;28;20854;-67
2022/05/16 04:08:03;;;;;;;1.90;1.80;;;21.00;58.00;;;;;;5080763;28;20517;-67
2022/05/16 04:10:28;;;;;;;2.30;2.20;;;21.00;58.10;;;;;;5079881;28;20179;-69
2022/05/16 04:12:54;;;;;;;2.50;2.10;;;21.00;57.90;;;;;;5082639;28;20467;-67
2022/05/16 04:15:21;;;;;;;2.00;1.90;;;21.00;57.80;;;;;;5093530;28;20171;-69
2022/05/16 04:17:47;;;;;;;2.43;2.23;;;21.00;57.80;;;;;;5076638;28;20844;-68
2022/05/16 04:20:13;;;;;;;2.07;1.97;;;21.00;57.80;;;;;;5076611;28;20414;-67
2022/05/16 04:22:40;;;;;;;1.87;1.77;;;21.00;57.90;;;;;;5076810;28;20500;-70
2022/05/16 04:25:07;;;;;;;2.20;2.10;;;21.00;57.80;;;;;;5075661;28;20402;-68
2022/05/16 04:27:33;;;;;;;2.13;2.03;;;21.00;57.90;;;;;;5076377;28;20421;-67
2022/05/16 04:29:59;;;;;;;2.20;2.00;;;20.90;58.00;;;;;;5076450;28;20433;-68
2022/05/16 04:32:24;;;;;;;2.33;2.23;;;20.90;58.40;;;;;;5076323;28;20191;-67
2022/05/16 04:34:50;;;;;;;2.20;2.10;;;20.90;58.20;;;;;;5076362;28;20167;-69
2022/05/16 04:37:16;;;;;;;3.90;2.43;;;20.90;58.20;;;;;;5076111;28;20306;-69
2022/05/16 04:39:42;;;;;;;2.47;2.20;;;20.90;58.40;;;;;;5076535;28;20194;-69
2022/05/16 04:44:52;;;;;;;2.53;2.30;;;20.90;58.60;;;;;;5076250;28;20166;-68
2022/05/16 04:47:18;;;;;;;2.20;2.10;;;20.90;58.60;;;;;;5075842;28;20938;-69
2022/05/16 04:49:44;;;;;;;2.33;2.13;;;20.90;58.60;;;;;;5076082;28;20260;-68
2022/05/16 04:52:11;;;;;;;2.50;2.30;;;20.90;58.60;;;;;;5075963;28;20265;-68
2022/05/16 04:54:38;;;;;;;2.33;2.17;;;20.90;58.60;;;;;;5075952;28;20413;-69
2022/05/16 04:57:04;;;;;;;2.90;2.70;;;20.90;58.60;;;;;;5075811;28;20820;-67
2022/05/16 04:59:30;;;;;;;2.43;2.33;;;20.90;58.60;;;;;;5075878;28;20416;-69
2022/05/16 05:01:55;;;;;;;2.40;2.30;;;20.90;58.60;;;;;;5075811;28;20492;-69
2022/05/16 05:04:21;;;;;;;2.60;2.40;;;20.90;58.60;;;;;;5075825;28;20198;-69
2022/05/16 05:06:48;;;;;;;2.33;2.20;;;20.90;58.50;;;;;;5074700;28;20261;-70
2022/05/16 05:09:13;;;;;;;2.90;2.70;;;20.90;58.60;;;;;;5090024;28;20181;-68
2022/05/16 05:14:32;;;;;;;2.03;1.93;;;21.00;58.40;;;;;;5080041;28;20236;-67
2022/05/16 05:17:10;;;;;;;2.33;2.23;;;21.00;58.40;;;;;;5074583;28;20417;-68
2022/05/16 05:19:40;;;;;;;2.23;1.83;;;21.00;58.40;;;;;;5055527;28;20494;-67
2022/05/16 05:22:06;;;;;;;2.37;2.17;;;21.00;58.50;;;;;;5055387;28;20500;-67
2022/05/16 05:24:32;;;;;;;2.53;2.33;;;21.00;58.50;;;;;;5055357;28;20762;-67
2022/05/16 05:26:58;;;;;;;2.07;1.97;;;21.00;58.50;;;;;;5055289;28;20504;-68
2022/05/16 05:29:24;;;;;;;2.57;2.37;;;21.00;58.50;;;;;;5055271;28;20188;-67
2022/05/16 05:31:50;;;;;;;2.50;2.30;;;21.00;58.50;;;;;;5055477;28;20757;-68
2022/05/16 05:34:16;;;;;;;2.53;2.33;;;21.00;58.60;;;;;;5055445;28;20937;-68
2022/05/16 05:36:43;;;;;;;2.20;2.10;;;21.00;58.60;;;;;;5055118;28;20899;-67
2022/05/16 05:39:13;;;;;;;2.57;2.40;;;21.00;58.60;;;;;;5055077;28;20417;-68
2022/05/16 05:41:40;;;;;;;2.50;2.30;;;21.00;58.60;;;;;;5055083;28;20489;-67
2022/05/16 05:44:05;;;;;;;2.27;2.10;;;21.00;58.60;;;;;;5054054;28;20903;-68
2022/05/16 05:46:37;;;;;;;2.47;2.27;;;21.00;58.60;;;;;;5054629;28;20427;-68
2022/05/16 05:49:03;;;;;;;2.63;2.53;;;21.00;58.60;;;;;;5054841;28;20207;-68
2022/05/16 05:51:29;;;;;;;2.70;2.50;;;21.00;58.70;;;;;;5054799;28;20464;-69
2022/05/16 05:53:54;;;;;;;2.30;2.20;;;21.00;58.70;;;;;;5054882;28;20430;-69
2022/05/16 05:56:20;;;;;;;2.10;2.00;;;21.00;58.70;;;;;;5055956;28;20183;-69
2022/05/16 05:58:46;;;;;;;2.50;2.30;;;21.00;58.70;;;;;;5055155;28;20607;-66
2022/05/16 06:01:11;;;;;;;2.60;2.40;;;21.00;58.80;;;;;;5054733;28;20168;-69
2022/05/16 06:03:37;;;;;;;2.57;2.37;;;21.00;58.80;;;;;;5054660;28;20406;-68
2022/05/16 06:06:03;;;;;;;2.20;2.10;;;21.00;58.90;;;;;;5054549;28;20529;-68
2022/05/16 06:08:29;;;;;;;2.00;1.90;;;21.00;58.90;;;;;;5054725;28;20179;-69
2022/05/16 06:10:54;;;;;;;2.13;2.03;;;21.00;58.90;;;;;;5054600;28;20207;-70
2022/05/16 06:13:20;;;;;;;2.40;2.30;;;21.00;58.90;;;;;;5053453;28;20191;-67
2022/05/16 06:15:46;;;;;;;2.37;2.27;;;21.00;58.90;;;;;;5054409;28;20183;-67
2022/05/16 06:18:12;;;;;;;2.20;2.10;;;21.00;59.00;;;;;;5054510;28;20233;-67
2022/05/16 06:20:37;;;;;;;1.90;1.80;;;21.00;59.00;;;;;;5053385;28;20195;-68
2022/05/16 06:23:03;;;;;;;2.13;2.03;;;21.00;59.00;;;;;;5053434;28;20510;-68
2022/05/16 06:25:32;;;;;;;2.00;1.90;;;21.00;59.00;;;;;;5054290;28;20413;-68
2022/05/16 06:28:03;;;;;;;2.23;2.13;;;21.00;59.00;;;;;;5054335;28;20210;-69
2022/05/16 06:30:29;;;;;;;2.13;2.00;;;21.00;59.00;;;;;;5054311;28;20406;-67
2022/05/16 06:32:54;;;;;;;2.03;1.93;;;21.00;59.00;;;;;;5054158;28;20450;-68
2022/05/16 06:35:20;;;;;;;2.30;2.10;;;21.00;59.00;;;;;;5054180;28;20887;-69
2022/05/16 06:37:46;;;;;;;2.57;2.37;;;21.00;59.10;;;;;;5053175;28;20518;-68
2022/05/16 06:40:14;;;;;;;2.40;2.20;;;21.00;59.00;;;;;;5083237;28;20431;-68
2022/05/16 06:42:40;;;;;;;2.17;2.07;;;21.00;59.00;;;;;;5094263;28;20504;-68
2022/05/16 06:45:07;;;;;;;3.20;1.97;;;21.00;59.20;;;;;;5094274;28;20412;-68
2022/05/16 06:47:32;;;;;;;2.20;2.10;;;21.00;59.20;;;;;;5094024;28;20655;-68
2022/05/16 06:49:58;;;;;;;2.37;2.20;;;21.00;59.30;;;;;;5094310;28;20477;-67
2022/05/16 06:52:24;;;;;;;2.93;2.67;;;21.00;59.30;;;;;;5094205;28;20193;-67
2022/05/16 06:54:50;;;;;;;2.40;2.20;;;21.00;59.40;;;;;;5094280;28;20678;-68
2022/05/16 06:57:16;;;;;;;2.20;2.10;;;21.00;59.40;;;;;;5094158;28;20193;-67
2022/05/16 06:59:42;;;;;;;3.00;2.50;;;20.90;59.60;;;;;;5095383;28;20401;-68
2022/05/16 07:02:08;;;;;;;2.30;2.20;;;20.90;59.70;;;;;;5097466;28;20181;-67
2022/05/16 07:04:36;;;;;;;2.37;2.20;;;20.90;59.70;;;;;;5098298;28;20424;-68
2022/05/16 07:07:08;;;;;;;2.30;2.20;;;20.90;59.70;;;;;;5098236;28;20186;-68
2022/05/16 07:09:36;;;;;;;2.40;2.30;;;20.90;59.70;;;;;;5098265;28;20391;-68
2022/05/16 07:12:01;;;;;;;3.10;2.20;;;20.90;59.80;;;;;;5098335;28;20444;-69
2022/05/16 07:14:27;;;;;;;2.53;2.43;;;20.90;59.80;;;;;;5098196;28;20727;-67
2022/05/16 07:16:53;;;;;;;2.33;2.17;;;20.90;59.80;;;;;;5098054;28;20269;-67
2022/05/16 07:19:18;;;;;;;2.63;2.40;;;20.90;59.90;;;;;;5098078;28;20261;-69
2022/05/16 07:21:44;;;;;;;2.67;2.47;;;20.90;59.80;;;;;;5098012;28;20617;-67
2022/05/16 07:24:09;;;;;;;2.40;2.30;;;20.90;59.90;;;;;;5098023;28;20509;-69
2022/05/16 07:29:19;;;;;;;1.83;1.73;;;20.90;59.90;;;;;;5097932;28;20235;-68
2022/05/16 07:31:46;;;;;;;2.17;2.00;;;20.90;59.90;;;;;;5097760;28;20841;-68
2022/05/16 07:34:12;;;;;;;2.10;2.00;;;20.90;59.90;;;;;;5098044;28;20364;-68
2022/05/16 07:36:38;;;;;;;2.20;2.10;;;20.90;59.90;;;;;;5097685;28;20416;-67
2022/05/16 07:39:04;;;;;;;2.00;1.90;;;20.90;59.90;;;;;;5097689;28;20477;-67
2022/05/16 07:41:31;;;;;;;2.07;1.97;;;20.90;59.90;;;;;;5096649;28;20166;-67
2022/05/16 07:43:57;;;;;;;2.20;2.10;;;20.90;59.90;;;;;;5097572;28;20397;-69
2022/05/16 07:46:24;;;;;;;2.03;1.93;;;20.90;59.90;;;;;;5097434;28;20431;-69
2022/05/16 07:48:50;;;;;;;1.93;1.83;;;20.90;59.90;;;;;;5097288;28;20459;-68
2022/05/16 07:51:16;;;;;;;1.87;1.77;;;20.90;59.90;;;;;;5097498;28;20400;-68
2022/05/16 07:53:41;;;;;;;2.13;2.03;;;20.90;59.80;;;;;;5097575;28;20509;-68
2022/05/16 07:56:09;;;;;;;2.07;1.97;;;20.90;59.80;;;;;;5097302;28;20421;-67
2022/05/16 07:58:35;;;;;;;2.30;2.20;;;20.90;59.90;;;;;;5097343;28;20163;-67
2022/05/16 08:01:01;;;;;;;2.50;2.30;;;20.90;59.80;;;;;;5096264;28;20494;-67
2022/05/16 08:03:29;;;;;;;2.33;2.23;;;20.90;59.80;;;;;;5097265;28;20896;-68
2022/05/16 08:05:55;;;;;;;2.17;2.00;;;20.90;59.90;;;;;;5096942;28;20421;-69
2022/05/16 08:11:06;;;;;;;2.40;2.23;;;20.90;59.80;;;;;;5096568;28;20386;-67
2022/05/16 08:13:32;;;;;;;2.43;2.33;;;20.90;59.90;;;;;;5089619;28;20994;-70
2022/05/16 08:15:58;;;;;;;2.40;2.20;;;20.90;59.90;;;;;;5088066;28;20776;-69
2022/05/16 08:18:24;;;;;;;2.50;2.40;;;20.90;60.00;;;;;;5085970;28;20485;-67
2022/05/16 08:20:51;;;;;;;2.00;1.90;;;20.90;60.00;;;;;;5076677;28;20439;-68
2022/05/16 08:23:21;;;;;;;1.90;1.80;;;20.90;59.90;;;;;;5076626;28;20882;-68
2022/05/16 08:25:47;;;;;;;2.07;1.97;;;20.90;59.90;;;;;;5076502;28;20430;-69
2022/05/16 08:28:13;;;;;;;3.20;2.10;;;20.90;60.00;;;;;;5076591;28;20421;-69
2022/05/16 08:30:39;;;;;;;2.27;2.10;;;20.90;59.90;;;;;;5076510;28;20414;-68
2022/05/16 08:33:05;;;;;;;1.87;1.77;;;20.90;59.90;;;;;;5076382;28;20586;-67
2022/05/16 08:35:32;;;;;;;2.57;2.47;;;20.90;59.90;;;;;;5076576;28;20755;-69
2022/05/16 08:41:02;;;;;;;2.10;2.00;;;20.90;59.90;;;;;;5076324;28;20388;-68
2022/05/16 08:43:36;;;;;;;2.67;2.50;;;20.90;59.90;;;;;;5076542;28;20401;-68
2022/05/16 08:46:10;;;;;;;2.17;2.07;;;20.90;60.00;;;;;;5076128;28;20421;-70
2022/05/16 08:48:40;;;;;;;3.70;2.60;;;20.90;60.00;;;;;;5075992;28;20539;-69
2022/05/16 08:51:29;;;;;;;2.80;2.60;;;20.90;60.00;;;;;;5091738;28;20424;-68
2022/05/16 08:54:27;;;;;;;3.10;2.90;;;20.90;60.00;;;;;;5079390;28;20463;-68
2022/05/16 08:56:58;;;;;;;2.27;2.13;;;20.90;60.00;;;;;;5083124;28;20509;-68
2022/05/16 08:59:26;;;;;;;2.57;2.37;;;20.90;60.00;;;;;;5082408;28;20801;-70
2022/05/16 09:02:04;;;;;;;2.50;2.40;;;20.90;60.00;;;;;;5075615;28;20410;-70
2022/05/16 09:04:51;;;;;;;2.83;2.63;;;20.90;59.90;;;;;;5083133;28;20408;-69
2022/05/16 09:07:26;;;;;;;2.80;2.60;;;20.90;60.00;;;;;;5095997;28;20412;-69
2022/05/16 09:09:55;;;;;;;2.60;2.40;;;20.90;60.00;;;;;;5096241;28;20408;-69
2022/05/16 09:12:34;;;;;;;2.37;2.10;;;20.90;60.00;;;;;;5095833;28;20448;-69
2022/05/16 09:15:25;;;;;;;3.40;3.10;;;20.90;60.00;;;;;;5095878;28;20458;-70
2022/05/16 09:18:09;;;;;;;2.20;2.10;;;20.90;60.00;;;;;;5095841;28;20816;-69
2022/05/16 09:20:48;;;;;;;2.43;2.33;;;20.90;60.00;;;;;;5095825;28;20797;-69
2022/05/16 09:23:38;;;;;;;3.03;2.83;;;20.90;60.00;;;;;;5094802;28;20509;-69
2022/05/16 09:26:14;;;;;;;2.63;2.50;;;20.90;60.00;;;;;;5095601;28;20457;-69
2022/05/16 09:28:46;;;;;;;2.47;2.37;;;20.90;60.00;;;;;;5095606;28;20429;-70
2022/05/16 09:31:28;;;;;;;2.20;2.10;;;20.90;60.00;;;;;;5095622;28;20429;-68
2022/05/16 09:33:57;;;;;;;2.60;2.50;;;20.90;60.10;;;;;;5095479;28;20435;-69
2022/05/16 09:36:32;;;;;;;2.60;2.50;;;20.90;60.00;;;;;;5095358;28;20898;-69
2022/05/16 09:38:58;;;;;;;2.40;2.30;;;20.90;60.10;;;;;;5095472;28;20396;-68
2022/05/16 09:41:42;;;;;;;2.50;2.30;;;20.90;60.10;;;;;;5095316;28;20393;-68
2022/05/16 09:44:31;;;;;;;1.93;1.83;;;20.90;60.10;;;;;;5095171;28;20492;-70
2022/05/16 09:47:22;;;;;;;1.90;1.80;;;20.90;60.00;;;;;;5094979;28;20452;-70
2022/05/16 09:50:07;;;;;;;2.40;2.20;;;20.90;60.10;;;;;;5094173;28;20404;-68
2022/05/16 09:52:45;;;;;;;2.30;2.20;;;20.90;60.10;;;;;;5095377;28;20522;-69
2022/05/16 09:55:16;;;;;;;2.43;2.33;;;20.90;60.10;;;;;;5095433;28;20467;-68
2022/05/16 09:57:48;;;;;;;2.10;2.00;;;20.90;60.10;;;;;;5094045;28;20478;-69
2022/05/16 10:00:21;;;;;;;4.90;3.00;;;20.90;60.20;;;;;;5094998;28;20837;-68
2022/05/16 10:03:14;;;;;;;2.00;1.90;;;20.90;60.20;;;;;;5093982;28;20435;-68
2022/05/16 10:05:47;;;;;;;2.50;2.30;;;20.90;60.10;;;;;;5065897;28;20439;-70
2022/05/16 10:08:21;;;;;;;2.30;2.20;;;20.90;60.00;;;;;;5094968;28;20408;-70
2022/05/16 10:10:47;;;;;;;2.10;2.00;;;20.90;60.10;;;;;;5094880;28;20404;-70
2022/05/16 10:13:14;;;;;;;2.27;2.10;;;20.90;60.10;;;;;;5094712;28;20453;-69
2022/05/16 10:15:40;;;;;;;2.40;2.30;;;20.90;60.10;;;;;;5094687;28;20166;-69
2022/05/16 10:18:12;;;;;;;2.00;1.90;;;20.90;60.10;;;;;;5093777;28;20477;-69
2022/05/16 10:20:46;;;;;;;2.67;2.47;;;20.90;60.10;;;;;;5093740;28;20412;-70
2022/05/16 10:23:21;;;;;;;2.27;2.17;;;20.90;60.30;;;;;;5094964;28;20396;-71
2022/05/16 10:25:50;;;;;;;2.20;2.07;;;20.90;60.10;;;;;;5094590;28;20749;-69
2022/05/16 10:28:32;;;;;;;2.47;2.30;;;20.90;60.20;;;;;;5094575;28;20491;-70
2022/05/16 10:33:47;;;;;;;2.30;2.10;;;20.90;60.10;;;;;;5082735;28;20456;-70
2022/05/16 10:36:20;;;;;;;2.40;2.30;;;20.90;60.10;;;;;;5053932;28;20423;-68
2022/05/16 10:39:02;;;;;;;2.23;2.03;;;20.90;60.10;;;;;;5051882;28;20497;-68
2022/05/16 10:41:37;;;;;;;2.00;1.90;;;20.90;60.00;;;;;;5079063;28;20788;-68
2022/05/16 10:44:16;;;;;;;2.40;2.30;;;20.90;60.00;;;;;;5094205;28;20419;-69
2022/05/16 10:46:47;;;;;;;1.90;1.80;;;20.90;60.00;;;;;;5091892;28;20431;-68
2022/05/16 10:49:18;;;;;;;2.23;2.13;;;20.90;60.10;;;;;;5076354;28;20423;-68
2022/05/16 10:51:52;;;;;;;2.10;2.00;;;20.90;60.00;;;;;;5073817;28;20715;-67
2022/05/16 10:54:22;;;;;;;1.90;1.80;;;20.90;60.00;;;;;;5074154;28;20386;-68
2022/05/16 10:57:14;;;;;;;2.20;2.10;;;20.90;60.00;;;;;;5074040;28;20504;-69
2022/05/16 11:00:08;;;;;;;1.97;1.87;;;21.00;59.90;;;;;;5074949;28;20421;-68
2022/05/16 11:02:39;;;;;;;2.10;2.00;;;20.90;60.00;;;;;;5066086;28;20421;-68
2022/05/16 11:05:19;;;;;;;2.13;1.93;;;20.90;60.00;;;;;;5072231;28;20433;-68
2022/05/16 11:07:52;;;;;;;2.10;2.00;;;20.90;60.10;;;;;;5072076;28;20440;-69
2022/05/16 11:10:52;;;;;;;2.00;1.90;;;20.90;60.10;;;;;;5072361;28;20404;-69
2022/05/16 11:14:02;;;;;;;2.10;2.00;;;20.90;60.20;;;;;;5065197;28;20476;-70
2022/05/16 11:16:34;;;;;;;2.00;1.90;;;20.90;60.10;;;;;;5069624;28;20441;-68
2022/05/16 11:19:13;;;;;;;2.23;2.13;;;20.90;60.00;;;;;;5072568;28;20416;-68
2022/05/16 11:22:00;;;;;;;2.60;2.40;;;20.90;60.00;;;;;;5073879;28;20858;-68
2022/05/16 11:24:56;;;;;;;2.23;2.13;;;20.90;60.00;;;;;;5073817;28;20866;-69
2022/05/16 11:27:55;;;;;;;2.30;2.17;;;20.90;60.20;;;;;;5073707;28;20658;-68
2022/05/16 11:30:41;;;;;;;2.87;2.67;;;21.00;60.00;;;;;;5073830;28;20386;-68
2022/05/16 11:33:07;;;;;;;2.53;2.33;;;21.00;60.00;;;;;;5073911;28;20473;-68
2022/05/16 11:35:45;;;;;;;3.20;2.67;;;20.90;60.20;;;;;;5073612;28;20466;-68
2022/05/16 11:38:25;;;;;;;3.00;2.40;;;21.00;60.10;;;;;;5073694;28;20386;-68
2022/05/16 11:41:20;;;;;;;3.00;2.20;;;20.90;60.40;;;;;;5073623;28;20393;-68
2022/05/16 11:43:55;;;;;;;2.10;2.00;;;21.00;60.40;;;;;;5068341;28;20416;-68
2022/05/16 11:46:47;;;;;;;2.03;1.93;;;21.00;60.30;;;;;;5064453;28;20420;-67
2022/05/16 11:49:32;;;;;;;2.30;2.13;;;21.00;60.20;;;;;;5067602;28;20584;-67
2022/05/16 11:52:08;;;;;;;2.30;2.20;;;21.00;60.20;;;;;;5066912;28;20461;-70
2022/05/16 11:54:44;;;;;;;2.73;2.10;;;21.00;60.30;;;;;;5066515;28;20405;-67
2022/05/16 12:02:33;;;;;;;2.83;1.87;;;21.00;60.20;;;;;;5080008;28;20419;-68
2022/05/16 12:05:02;;;;;;;3.13;2.10;;;21.00;60.20;;;;;;5087495;28;20419;-68
2022/05/16 12:07:31;;;;;;;3.10;1.90;;;21.00;60.20;;;;;;5095207;28;20436;-68
2022/05/16 12:09:56;;;;;;;2.40;1.80;;;21.00;60.10;;;;;;5095755;28;20469;-68
2022/05/16 12:12:30;;;;;;;2.60;1.70;;;21.00;60.10;;;;;;5080340;28;20852;-68
2022/05/16 12:15:17;;;;;;;3.33;2.23;;;21.00;60.10;;;;;;5097025;28;20262;-68
2022/05/16 12:17:53;;;;;;;2.10;1.70;;;21.00;60.20;;;;;;5077353;28;20424;-68
2022/05/16 12:20:38;;;;;;;2.07;1.80;;;21.00;60.10;;;;;;5090306;28;20745;-68
2022/05/16 12:23:06;;;;;;;1.83;1.73;;;21.10;60.10;;;;;;5065096;28;20448;-69
2022/05/16 12:25:35;;;;;;;2.50;1.80;;;21.10;60.20;;;;;;5086326;28;20494;-68
2022/05/16 12:28:12;;;;;;;2.10;1.87;;;21.10;60.10;;;;;;5096787;28;20404;-68
2022/05/16 12:30:38;;;;;;;2.07;1.60;;;21.10;60.10;;;;;;5074419;28;20416;-69
2022/05/16 12:33:25;;;;;;;2.40;1.90;;;21.10;60.20;;;;;;5096640;28;20458;-68
2022/05/16 12:35:53;;;;;;;1.87;1.50;;;21.10;60.20;;;;;;5089313;28;20221;-67
2022/05/16 12:38:21;;;;;;;1.60;1.50;;;21.10;60.20;;;;;;5096537;28;20912;-68
2022/05/16 12:40:56;;;;;;;1.77;1.67;;;21.10;60.20;;;;;;5092191;28;20409;-68
2022/05/16 12:44:04;;;;;;;2.93;2.03;;;21.10;60.20;;;;;;5077913;28;20579;-67
2022/05/16 12:46:58;;;;;;;2.03;1.90;;;21.10;60.20;;;;;;5095461;28;21144;-69
2022/05/16 12:50:04;;;;;;;2.73;2.40;;;21.10;60.30;;;;;;5087220;28;20445;-68
2022/05/16 12:52:48;;;;;;;2.13;2.00;;;21.10;60.40;;;;;;5090493;28;20460;-67
2022/05/16 12:55:22;;;;;;;2.23;2.13;;;21.10;60.30;;;;;;5096361;28;20452;-68
2022/05/16 12:58:00;;;;;;;2.40;2.30;;;21.10;60.40;;;;;;5095230;28;20458;-68
2022/05/16 13:00:51;;;;;;;2.50;2.30;;;21.10;60.30;;;;;;5096185;28;20381;-67
2022/05/16 13:03:49;;;;;;;2.40;2.20;;;21.10;60.40;;;;;;5096158;28;20396;-69
2022/05/16 13:06:37;;;;;;;2.20;2.10;;;21.10;60.30;;;;;;5095934;28;20459;-68
2022/05/16 13:09:11;;;;;;;2.17;2.07;;;21.10;60.30;;;;;;5096087;28;20815;-68
2022/05/16 13:11:51;;;;;;;2.13;2.03;;;21.00;60.30;;;;;;5095998;28;20862;-68
2022/05/16 13:14:33;;;;;;;2.20;2.10;;;21.10;60.30;;;;;;5095910;28;20412;-69
2022/05/16 13:17:08;;;;;;;2.30;2.10;;;21.10;60.30;;;;;;5096080;28;20424;-68
2022/05/16 13:19:43;;;;;;;2.33;2.13;;;21.10;60.30;;;;;;5095853;28;20384;-68
2022/05/16 13:22:18;;;;;;;2.43;2.30;;;21.10;60.30;;;;;;5095896;28;20389;-68
2022/05/16 13:24:45;;;;;;;1.97;1.87;;;21.10;60.40;;;;;;5095748;28;20406;-68
2022/05/16 13:30:03;;;;;;;2.10;2.00;;;21.10;60.30;;;;;;5095851;28;20505;-68
2022/05/16 13:32:31;;;;;;;2.50;2.30;;;21.10;60.30;;;;;;5095487;28;20451;-68
2022/05/16 13:35:02;;;;;;;2.00;1.90;;;21.10;60.30;;;;;;5095487;28;20409;-68
2022/05/16 13:37:51;;;;;;;2.07;1.97;;;21.10;60.30;;;;;;5095426;28;20981;-68
2022/05/16 13:40:25;;;;;;;2.03;1.83;;;21.10;60.40;;;;;;5090295;28;20419;-68